Hlavní strana
METAR-TAF:

METAR-TAF

Letiště :

Fort Rucker, Alabama, Spojené státy americké

zeměpisná šířka: 31-21N, zeměpisná délka: 085-40W, výška: 97 m

Aktuální stav počasí

Zpráva byla vytvořena před 28 minutami, v 19:35 UTC
Jihojihozápadní vítr 5 kt
Teplota 31°C
Vlhkost vzduchu 66%
Tlak 1016 hPa
Viditelnost: 16.1 km
Oblačno až skoro zataženo ve výšce 4200 ft

METAR: KHEY 221935Z AUTO 20005KT 10SM BKN042 31/24 A2999 RMK AO2 LTG DSNT NW SLP155

Čas: 15:03 (20:03 UTC)


TAF: chybějící

Stav a předpovědi počasí z více než 4 000 letišť (zprávy METAR a TAF).

Červené a žluté tečky na mapě představují dostupné meteorologické stanice.

Když kurzor umístíte na tečku, zobrazí se název stanice.

Pak kliknutím zobrazíte stav a předpověď počasí.

Chcete-li změnit mapu, kliknutím na zelené tlačítko se znaménkem +mapu přiblížíte, kliknutím na zelené tlačítko se znaménkem – mapu oddálíte a kliknutím na zelené šipky přejdete na sousední mapy.


METAR-TAF: